createdAt,value
2024-03-15T00:00:09.173Z,9.20
2024-03-15T00:02:41.502Z,9.20
2024-03-15T00:05:12.605Z,9.20
2024-03-15T00:07:40.573Z,9.20
2024-03-15T00:10:08.354Z,9.20
2024-03-15T00:12:35.996Z,9.20
2024-03-15T00:15:04.088Z,9.20
2024-03-15T00:17:31.926Z,9.20
2024-03-15T00:20:01.794Z,9.20
2024-03-15T00:22:29.489Z,9.20
2024-03-15T00:24:57.054Z,9.20
2024-03-15T00:27:26.530Z,9.20
2024-03-15T00:29:54.254Z,9.20
2024-03-15T00:32:21.638Z,9.20
2024-03-15T00:34:48.953Z,9.20
2024-03-15T00:37:16.520Z,9.20
2024-03-15T00:39:44.130Z,9.10
2024-03-15T00:42:11.590Z,9.10
2024-03-15T00:44:39.207Z,9.10
2024-03-15T00:47:06.912Z,9.10
2024-03-15T00:49:35.930Z,9.10
2024-03-15T00:52:03.609Z,9.20
2024-03-15T00:54:31.228Z,9.20
2024-03-15T00:56:58.696Z,9.10
2024-03-15T00:59:26.320Z,9.10
2024-03-15T01:06:25.130Z,9.00
2024-03-15T01:08:55.168Z,9.00
2024-03-15T01:11:22.853Z,9.00
2024-03-15T01:13:56.995Z,9.00
2024-03-15T01:16:26.050Z,8.90
2024-03-15T01:18:55.321Z,8.90
2024-03-15T01:21:27.926Z,8.90
2024-03-15T01:23:56.420Z,8.90
2024-03-15T01:26:24.997Z,8.70
2024-03-15T01:28:52.384Z,9.00
2024-03-15T01:31:20.755Z,9.00
2024-03-15T01:33:48.403Z,8.90
2024-03-15T01:36:16.078Z,8.90
2024-03-15T01:38:43.517Z,8.90
2024-03-15T01:41:10.934Z,9.10
2024-03-15T01:43:50.884Z,8.80
2024-03-15T01:46:18.919Z,8.80
2024-03-15T01:48:46.542Z,8.80
2024-03-15T01:51:14.079Z,8.80
2024-03-15T01:53:45.078Z,8.80
2024-03-15T01:56:12.623Z,8.70
2024-03-15T01:58:40.279Z,8.70
2024-03-15T02:01:07.876Z,8.70
2024-03-15T02:03:35.892Z,8.70
2024-03-15T02:06:03.472Z,8.70
2024-03-15T02:08:30.920Z,8.70
2024-03-15T02:10:59.228Z,8.60
2024-03-15T02:13:27.076Z,8.60
2024-03-15T02:15:54.592Z,8.60
2024-03-15T02:18:22.016Z,8.60
2024-03-15T02:20:49.751Z,8.60
2024-03-15T02:23:17.214Z,8.60
2024-03-15T02:25:44.551Z,8.70
2024-03-15T02:28:12.045Z,8.70
2024-03-15T02:30:42.348Z,8.70
2024-03-15T02:33:11.630Z,8.70
2024-03-15T02:35:40.364Z,8.80
2024-03-15T02:38:07.912Z,8.80
2024-03-15T02:40:35.496Z,8.80
2024-03-15T02:43:03.931Z,8.80
2024-03-15T02:45:32.338Z,8.80
2024-03-15T02:47:59.898Z,8.90
2024-03-15T02:50:27.297Z,8.90
2024-03-15T02:52:54.693Z,8.90
2024-03-15T02:55:22.195Z,8.90
2024-03-15T02:57:51.472Z,8.90
2024-03-15T03:00:19.273Z,9.00
2024-03-15T03:02:46.727Z,9.00
2024-03-15T03:05:14.276Z,9.00
2024-03-15T03:07:41.674Z,9.00
2024-03-15T03:10:09.042Z,9.10
2024-03-15T03:12:37.446Z,9.00
2024-03-15T03:15:05.537Z,9.00
2024-03-15T03:17:33.087Z,9.00
2024-03-15T03:22:55.543Z,9.10
2024-03-15T03:25:25.466Z,9.00
2024-03-15T03:27:53.058Z,9.10
2024-03-15T03:30:20.649Z,9.10
2024-03-15T03:32:48.158Z,9.10
2024-03-15T03:35:15.512Z,9.10
2024-03-15T03:37:44.756Z,9.10
2024-03-15T03:40:18.248Z,9.10
2024-03-15T03:42:48.219Z,9.10
2024-03-15T03:45:19.074Z,9.10
2024-03-15T03:47:49.602Z,9.10
2024-03-15T03:50:20.571Z,9.10
2024-03-15T03:52:49.371Z,9.10
2024-03-15T03:55:16.919Z,9.10
2024-03-15T03:57:48.071Z,9.10
2024-03-15T04:00:16.292Z,9.10
2024-03-15T04:02:48.271Z,9.10
2024-03-15T04:05:19.538Z,9.20
2024-03-15T04:07:47.649Z,9.20
2024-03-15T04:10:16.145Z,9.10
2024-03-15T04:12:47.325Z,9.20
2024-03-15T04:15:25.384Z,9.20
2024-03-15T04:18:03.767Z,9.20
2024-03-15T04:20:31.495Z,9.20
2024-03-15T04:22:58.921Z,9.20
2024-03-15T04:25:28.296Z,9.30
2024-03-15T04:27:57.005Z,9.20
2024-03-15T04:30:25.218Z,9.20
2024-03-15T04:32:53.636Z,9.20
2024-03-15T04:35:21.074Z,9.20
2024-03-15T04:37:48.378Z,9.20
2024-03-15T04:40:16.299Z,9.20
2024-03-15T04:42:44.038Z,9.20
2024-03-15T04:45:12.057Z,9.20
2024-03-15T04:47:42.881Z,9.20
2024-03-15T04:50:11.819Z,9.20
2024-03-15T04:52:41.937Z,9.20
2024-03-15T04:55:12.748Z,9.10
2024-03-15T04:57:40.849Z,9.00
2024-03-15T05:00:11.018Z,9.10
2024-03-15T05:02:39.201Z,9.00
2024-03-15T05:05:08.605Z,9.00
2024-03-15T05:07:35.991Z,9.00
2024-03-15T05:10:04.023Z,9.00
2024-03-15T05:12:31.611Z,8.90
2024-03-15T05:14:59.128Z,8.90
2024-03-15T05:17:27.673Z,8.90
2024-03-15T05:19:56.468Z,8.80
2024-03-15T05:22:27.730Z,8.80
2024-03-15T05:24:55.573Z,8.80
2024-03-15T05:27:23.076Z,8.80
2024-03-15T05:29:50.588Z,8.80
2024-03-15T05:32:18.033Z,8.80
2024-03-15T05:34:45.473Z,8.80
2024-03-15T05:37:12.905Z,8.70
2024-03-15T05:39:40.401Z,8.80
2024-03-15T05:42:08.314Z,8.70
2024-03-15T05:44:36.319Z,8.80
2024-03-15T05:47:04.229Z,8.70
2024-03-15T05:49:31.653Z,8.70
2024-03-15T05:51:59.061Z,8.00
2024-03-15T05:54:26.514Z,8.80
2024-03-15T05:56:53.999Z,8.90
2024-03-15T05:59:23.789Z,8.90
2024-03-15T06:01:51.334Z,8.90
2024-03-15T06:04:21.133Z,8.90
2024-03-15T06:06:48.618Z,9.00
2024-03-15T06:09:16.930Z,9.00
2024-03-15T06:11:45.735Z,9.00
2024-03-15T06:14:13.329Z,9.80
2024-03-15T06:16:41.302Z,9.10
2024-03-15T06:19:09.225Z,9.20
2024-03-15T06:21:37.955Z,9.30
2024-03-15T06:24:07.726Z,9.40
2024-03-15T06:26:35.324Z,9.60
2024-03-15T06:29:06.369Z,9.60
2024-03-15T06:31:41.450Z,9.50
2024-03-15T06:34:09.920Z,9.60
2024-03-15T06:36:44.417Z,9.50
2024-03-15T06:39:41.687Z,9.50
2024-03-15T06:42:26.687Z,9.40
2024-03-15T06:45:25.362Z,9.40
2024-03-15T06:48:07.887Z,9.50
2024-03-15T06:53:37.086Z,9.60
2024-03-15T06:56:04.868Z,9.70
2024-03-15T06:58:32.377Z,9.70
2024-03-15T07:01:23.163Z,9.60
2024-03-15T07:03:51.596Z,9.60
2024-03-15T07:06:21.689Z,8.20
2024-03-15T07:08:51.051Z,9.60
2024-03-15T07:11:18.910Z,9.60
2024-03-15T07:13:47.638Z,9.60
2024-03-15T07:16:18.411Z,9.60
2024-03-15T07:18:46.127Z,9.70
2024-03-15T07:21:13.819Z,9.70
2024-03-15T07:23:42.889Z,9.70
2024-03-15T07:26:12.039Z,9.80
2024-03-15T07:28:41.278Z,9.80
2024-03-15T07:31:10.523Z,9.80
2024-03-15T07:33:38.689Z,10.00
2024-03-15T07:39:01.501Z,10.20
2024-03-15T07:41:38.709Z,10.80
2024-03-15T07:44:13.765Z,11.00
2024-03-15T07:46:43.374Z,10.90
2024-03-15T07:49:11.342Z,10.60
2024-03-15T07:51:43.461Z,10.50
2024-03-15T07:54:11.840Z,10.40
2024-03-15T07:56:39.279Z,10.40
2024-03-15T07:59:07.023Z,10.40
2024-03-15T08:01:35.723Z,10.30
2024-03-15T08:04:03.444Z,10.30
2024-03-15T08:06:30.897Z,10.30
2024-03-15T08:09:03.463Z,10.20
2024-03-15T08:11:33.531Z,10.30
2024-03-15T08:14:07.334Z,10.30
2024-03-15T08:16:35.936Z,9.00
2024-03-15T08:19:05.617Z,10.30
2024-03-15T08:21:33.574Z,10.30
2024-03-15T08:24:11.164Z,10.40
2024-03-15T08:26:41.338Z,10.40
2024-03-15T08:29:16.511Z,10.40
2024-03-15T08:31:44.350Z,9.30
2024-03-15T08:34:11.905Z,10.40
2024-03-15T08:36:42.329Z,10.60
2024-03-15T08:39:14.283Z,10.60
2024-03-15T08:41:46.451Z,10.70
2024-03-15T08:44:14.935Z,10.20
2024-03-15T08:46:45.884Z,10.90
2024-03-15T08:49:13.499Z,10.90
2024-03-15T08:51:43.160Z,11.00
2024-03-15T08:54:10.938Z,11.10
2024-03-15T08:56:40.935Z,11.00
2024-03-15T08:59:15.727Z,11.00
2024-03-15T09:01:43.568Z,11.20
2024-03-15T09:04:11.357Z,11.20
2024-03-15T09:06:38.916Z,11.20
2024-03-15T09:09:12.521Z,11.20
2024-03-15T09:11:40.470Z,11.30
2024-03-15T09:14:08.128Z,11.60
2024-03-15T09:16:36.670Z,11.40
2024-03-15T09:19:04.820Z,11.60
2024-03-15T09:21:33.983Z,11.60
2024-03-15T09:24:02.350Z,11.80
2024-03-15T09:26:29.962Z,12.00
2024-03-15T09:29:01.407Z,12.10
2024-03-15T09:31:45.446Z,12.20
2024-03-15T09:34:18.786Z,12.30
2024-03-15T09:36:46.462Z,12.40
2024-03-15T09:39:19.966Z,12.40
2024-03-15T09:41:51.931Z,12.30
2024-03-15T09:44:20.084Z,12.40
2024-03-15T09:46:47.659Z,12.20
2024-03-15T09:49:21.906Z,12.20
2024-03-15T09:51:53.585Z,12.00
2024-03-15T09:54:21.619Z,11.70
2024-03-15T09:56:52.144Z,11.70
2024-03-15T09:59:29.710Z,11.70
2024-03-15T10:01:57.302Z,11.80
2024-03-15T10:04:26.561Z,11.70
2024-03-15T10:07:02.022Z,11.60
2024-03-15T10:09:29.737Z,11.70
2024-03-15T10:11:57.409Z,11.80
2024-03-15T10:14:24.968Z,11.80
2024-03-15T10:16:52.914Z,11.70
2024-03-15T10:19:20.540Z,11.80
2024-03-15T10:21:48.487Z,12.00
2024-03-15T10:24:17.282Z,12.10
2024-03-15T10:26:44.745Z,12.00
2024-03-15T10:29:13.031Z,11.90
2024-03-15T10:31:40.628Z,11.90
2024-03-15T10:34:14.099Z,12.00
2024-03-15T10:36:42.225Z,11.90
2024-03-15T10:39:13.445Z,11.90
2024-03-15T10:41:43.951Z,11.90
2024-03-15T10:44:20.491Z,11.80
2024-03-15T10:46:48.742Z,11.80
2024-03-15T10:49:16.952Z,11.70
2024-03-15T10:51:49.065Z,11.60
2024-03-15T10:54:22.226Z,11.60
2024-03-15T10:56:49.959Z,11.70
2024-03-15T10:59:18.182Z,11.70
2024-03-15T11:01:46.687Z,11.60
2024-03-15T11:04:24.272Z,11.60
2024-03-15T11:06:52.740Z,11.50
2024-03-15T11:09:25.963Z,11.50
2024-03-15T11:12:07.317Z,11.40
2024-03-15T11:14:43.240Z,11.50
2024-03-15T11:17:21.615Z,11.50
2024-03-15T11:29:01.633Z,11.40
2024-03-15T11:31:31.877Z,11.00
2024-03-15T11:36:47.900Z,10.90
2024-03-15T11:39:28.566Z,10.90
2024-03-15T11:42:05.130Z,10.90
2024-03-15T11:44:43.224Z,10.90
2024-03-15T11:53:02.967Z,10.60
2024-03-15T11:58:21.168Z,10.80
2024-03-15T12:00:54.434Z,10.50
2024-03-15T12:03:27.781Z,10.50
2024-03-15T12:05:56.670Z,10.30
2024-03-15T12:08:28.578Z,10.20
2024-03-15T12:10:57.929Z,10.90
2024-03-15T12:13:28.271Z,10.20
2024-03-15T12:15:56.410Z,10.20
2024-03-15T12:18:26.596Z,10.30
2024-03-15T12:20:56.684Z,10.20
2024-03-15T12:23:25.236Z,10.20
2024-03-15T12:25:53.794Z,10.30
2024-03-15T12:28:23.853Z,10.30
2024-03-15T12:30:58.884Z,10.50
2024-03-15T12:33:26.758Z,10.00
2024-03-15T12:35:56.954Z,10.70
2024-03-15T12:38:24.412Z,10.60
2024-03-15T12:40:58.820Z,10.50
2024-03-15T12:43:30.451Z,10.60
2024-03-15T12:45:58.138Z,10.80
2024-03-15T12:48:25.698Z,10.90
2024-03-15T12:50:53.509Z,11.10
2024-03-15T12:53:20.870Z,11.10
2024-03-15T12:55:48.459Z,11.10
2024-03-15T12:58:16.115Z,11.10
2024-03-15T13:00:45.943Z,11.10
2024-03-15T13:03:13.933Z,11.20
2024-03-15T13:05:41.771Z,11.10
2024-03-15T13:08:09.358Z,11.20
2024-03-15T13:10:36.908Z,11.20
2024-03-15T13:13:06.129Z,11.20
2024-03-15T13:15:37.757Z,11.40
2024-03-15T13:18:05.406Z,11.50
2024-03-15T13:20:33.166Z,11.60
2024-03-15T13:23:06.163Z,11.60
2024-03-15T13:25:37.890Z,11.80
2024-03-15T13:28:07.358Z,12.00
2024-03-15T13:30:37.080Z,12.70
2024-03-15T13:33:05.128Z,12.70
2024-03-15T13:35:33.151Z,12.40
2024-03-15T13:38:00.756Z,12.10
2024-03-15T13:40:28.217Z,11.70
2024-03-15T13:43:00.217Z,11.70
2024-03-15T13:45:29.515Z,11.60
2024-03-15T13:47:58.928Z,11.50
2024-03-15T13:50:26.461Z,11.40
2024-03-15T13:52:54.084Z,11.30
2024-03-15T13:55:24.897Z,11.30
2024-03-15T13:57:52.749Z,11.40
2024-03-15T14:00:39.780Z,11.30
2024-03-15T14:03:14.170Z,11.10
2024-03-15T14:05:42.480Z,10.80
2024-03-15T14:08:20.645Z,10.50
2024-03-15T14:10:48.362Z,10.50
2024-03-15T14:13:22.260Z,10.50
2024-03-15T14:15:53.794Z,10.50
2024-03-15T14:18:21.458Z,10.30
2024-03-15T14:20:49.078Z,10.20
2024-03-15T14:23:16.976Z,10.10
2024-03-15T14:25:47.272Z,10.00
2024-03-15T14:28:14.852Z,10.00
2024-03-15T14:30:42.560Z,10.00
2024-03-15T14:33:11.386Z,10.00
2024-03-15T14:35:40.021Z,9.90
2024-03-15T14:38:10.452Z,9.90
2024-03-15T14:40:41.719Z,9.90
2024-03-15T14:43:12.989Z,9.80
2024-03-15T14:45:41.276Z,9.70
2024-03-15T14:48:15.083Z,9.70
2024-03-15T14:50:44.904Z,9.70
2024-03-15T14:53:18.404Z,9.70
2024-03-15T14:55:48.421Z,9.70
2024-03-15T14:58:16.360Z,9.70
2024-03-15T15:00:45.060Z,9.70
2024-03-15T15:03:14.391Z,9.70
2024-03-15T15:05:42.099Z,9.70
2024-03-15T15:08:11.871Z,9.80
2024-03-15T15:10:40.884Z,9.70
2024-03-15T15:13:11.320Z,9.70
2024-03-15T15:15:42.515Z,9.60
2024-03-15T15:18:24.993Z,9.60
2024-03-15T15:21:21.438Z,9.90
2024-03-15T15:24:03.742Z,9.70
2024-03-15T15:26:38.178Z,9.60
2024-03-15T15:29:17.769Z,9.60
2024-03-15T15:31:47.816Z,9.60
2024-03-15T15:34:57.871Z,9.50
2024-03-15T15:37:33.793Z,9.50
2024-03-15T15:40:30.424Z,9.60
2024-03-15T15:43:02.860Z,9.60
2024-03-15T15:45:41.569Z,9.60
2024-03-15T15:48:31.962Z,9.60
2024-03-15T15:51:30.054Z,9.50
2024-03-15T15:54:01.665Z,9.50
2024-03-15T15:56:42.699Z,9.50
2024-03-15T15:59:11.950Z,9.50
2024-03-15T16:01:52.444Z,9.50
2024-03-15T16:04:42.429Z,9.50
2024-03-15T16:07:49.253Z,9.50
2024-03-15T16:10:31.494Z,9.60
2024-03-15T16:13:04.770Z,9.50
2024-03-15T16:15:42.405Z,9.60
2024-03-15T16:18:23.538Z,9.60
2024-03-15T16:21:11.039Z,9.60
2024-03-15T16:23:38.843Z,9.50
2024-03-15T16:26:15.743Z,9.50
2024-03-15T16:29:20.405Z,9.50
2024-03-15T16:32:20.961Z,9.50
2024-03-15T16:34:50.606Z,9.50
2024-03-15T16:37:21.012Z,9.40
2024-03-15T16:39:49.830Z,9.30
2024-03-15T16:42:20.855Z,9.30
2024-03-15T16:44:54.740Z,9.30
2024-03-15T16:47:23.583Z,9.20
2024-03-15T16:49:51.119Z,9.20
2024-03-15T16:52:20.098Z,9.20
2024-03-15T16:54:49.575Z,9.10
2024-03-15T16:57:16.975Z,9.00
2024-03-15T16:59:44.623Z,9.00
2024-03-15T17:02:12.750Z,8.90
2024-03-15T17:04:40.902Z,8.90
2024-03-15T17:07:09.002Z,8.80
2024-03-15T17:09:37.380Z,8.90
2024-03-15T17:12:08.470Z,8.80
2024-03-15T17:17:38.331Z,8.70
2024-03-15T17:20:07.164Z,8.60
2024-03-15T17:22:34.555Z,8.60
2024-03-15T17:25:02.500Z,8.60
2024-03-15T17:27:31.456Z,8.50
2024-03-15T17:30:03.347Z,8.50
2024-03-15T17:32:33.094Z,8.50
2024-03-15T17:35:04.096Z,8.50
2024-03-15T17:37:33.031Z,8.40
2024-03-15T17:40:08.666Z,8.30
2024-03-15T17:42:39.040Z,8.30
2024-03-15T17:45:10.872Z,8.30
2024-03-15T17:47:40.762Z,8.30
2024-03-15T17:50:09.367Z,8.30
2024-03-15T17:52:38.181Z,8.30
2024-03-15T17:55:10.471Z,8.10
2024-03-15T17:57:38.522Z,8.10
2024-03-15T18:00:14.287Z,8.10
2024-03-15T18:02:42.595Z,8.00
2024-03-15T18:05:12.368Z,8.00
2024-03-15T18:07:41.027Z,8.10
2024-03-15T18:10:11.238Z,8.10
2024-03-15T18:12:39.992Z,8.10
2024-03-15T18:15:07.995Z,8.10
2024-03-15T18:17:35.782Z,8.00
2024-03-15T18:20:04.815Z,8.00
2024-03-15T18:22:32.285Z,8.10
2024-03-15T18:25:00.083Z,8.10
2024-03-15T18:27:27.979Z,8.10
2024-03-15T18:29:56.417Z,8.00
2024-03-15T18:32:23.983Z,8.00
2024-03-15T18:34:51.701Z,8.00
2024-03-15T18:37:19.209Z,8.00
2024-03-15T18:39:49.156Z,8.00
2024-03-15T18:42:16.649Z,8.00
2024-03-15T18:44:44.036Z,8.00
2024-03-15T18:47:12.818Z,8.00
2024-03-15T18:49:40.143Z,8.00
2024-03-15T18:52:07.561Z,8.00
2024-03-15T18:54:35.543Z,8.00
2024-03-15T18:57:07.478Z,8.00
2024-03-15T18:59:37.961Z,8.00
2024-03-15T19:02:06.987Z,8.10
2024-03-15T19:04:37.070Z,8.10
2024-03-15T19:07:04.856Z,8.00
2024-03-15T19:09:32.481Z,8.00
2024-03-15T19:12:00.152Z,7.90
2024-03-15T19:14:30.130Z,8.00
2024-03-15T19:16:57.711Z,7.90
2024-03-15T19:19:25.305Z,8.00
2024-03-15T19:21:52.871Z,8.00
2024-03-15T19:24:20.499Z,8.00
2024-03-15T19:29:56.186Z,8.00
2024-03-15T19:32:28.993Z,8.00
2024-03-15T19:35:07.706Z,8.10
2024-03-15T19:37:43.278Z,8.10
2024-03-15T19:40:12.374Z,8.10
2024-03-15T19:42:41.162Z,8.10
2024-03-15T19:45:15.695Z,8.20
2024-03-15T19:47:44.990Z,8.10
2024-03-15T19:50:17.205Z,8.20
2024-03-15T19:52:45.394Z,8.20
2024-03-15T19:55:13.487Z,8.20
2024-03-15T19:57:41.601Z,8.20
2024-03-15T20:00:12.373Z,8.20
2024-03-15T20:02:40.640Z,8.30
2024-03-15T20:07:53.637Z,8.50
2024-03-15T20:10:21.590Z,8.50
2024-03-15T20:12:57.042Z,8.70
2024-03-15T20:21:35.832Z,8.40
2024-03-15T20:24:04.629Z,8.40
2024-03-15T20:29:37.948Z,8.30
2024-03-15T20:32:23.994Z,8.30
2024-03-15T20:35:02.212Z,8.40
2024-03-15T20:37:30.583Z,8.00
2024-03-15T20:40:00.088Z,8.30
2024-03-15T20:42:40.685Z,8.30
2024-03-15T20:45:13.137Z,8.30
2024-03-15T20:47:47.296Z,8.30
2024-03-15T20:50:19.002Z,8.30
2024-03-15T20:52:47.986Z,8.30
2024-03-15T20:55:22.743Z,8.30
2024-03-15T20:57:52.853Z,8.30
2024-03-15T21:00:30.405Z,8.30
2024-03-15T21:05:49.617Z,8.50
2024-03-15T21:11:09.790Z,8.50
2024-03-15T21:13:38.928Z,8.50
2024-03-15T21:16:09.541Z,8.60
2024-03-15T21:18:40.844Z,8.60
2024-03-15T21:27:07.931Z,8.40
2024-03-15T21:29:35.620Z,8.50
2024-03-15T21:32:06.517Z,8.50
2024-03-15T21:34:36.555Z,8.50
2024-03-15T21:37:04.185Z,8.40
2024-03-15T21:39:32.769Z,8.40
2024-03-15T21:42:00.549Z,8.40
2024-03-15T21:44:28.122Z,8.40
2024-03-15T21:46:55.535Z,8.30
2024-03-15T21:49:23.441Z,8.30
2024-03-15T21:51:51.131Z,8.20
2024-03-15T21:54:18.786Z,8.20
2024-03-15T21:56:47.259Z,8.20
2024-03-15T21:59:18.025Z,8.10
2024-03-15T22:01:45.464Z,8.10
2024-03-15T22:04:19.974Z,8.20
2024-03-15T22:06:47.492Z,8.20
2024-03-15T22:09:20.057Z,8.20
2024-03-15T22:11:47.923Z,8.20
2024-03-15T22:14:15.195Z,8.20
2024-03-15T22:16:42.600Z,8.20
2024-03-15T22:19:10.122Z,8.30
2024-03-15T22:21:37.602Z,8.20
2024-03-15T22:24:05.289Z,8.20
2024-03-15T22:26:33.155Z,8.20
2024-03-15T22:29:00.603Z,8.20
2024-03-15T22:31:28.593Z,8.20
2024-03-15T22:33:56.754Z,8.20
2024-03-15T22:36:24.852Z,8.20
2024-03-15T22:38:53.972Z,8.10
2024-03-15T22:41:21.627Z,8.20
2024-03-15T22:43:57.582Z,8.20
2024-03-15T22:46:25.339Z,8.20
2024-03-15T22:48:52.738Z,8.10
2024-03-15T22:51:20.017Z,8.10
2024-03-15T22:53:47.915Z,8.10
2024-03-15T22:56:15.296Z,8.10
2024-03-15T22:58:42.848Z,8.10
2024-03-15T23:01:13.095Z,8.20
2024-03-15T23:03:47.027Z,8.10
2024-03-15T23:06:18.009Z,8.10
2024-03-15T23:08:48.367Z,8.20
2024-03-15T23:11:15.837Z,8.20
2024-03-15T23:13:47.411Z,8.20
2024-03-15T23:16:15.020Z,8.30
2024-03-15T23:18:42.406Z,8.40
2024-03-15T23:21:10.669Z,8.40
2024-03-15T23:23:38.815Z,8.50
2024-03-15T23:26:06.395Z,8.10
2024-03-15T23:28:34.533Z,8.50
2024-03-15T23:31:02.356Z,8.50
2024-03-15T23:33:30.059Z,8.50
2024-03-15T23:35:59.611Z,8.40
2024-03-15T23:38:27.102Z,8.50
2024-03-15T23:40:54.417Z,8.50
2024-03-15T23:43:22.632Z,8.40
2024-03-15T23:45:52.117Z,8.50
2024-03-15T23:48:30.144Z,8.40
2024-03-15T23:51:02.529Z,8.50
2024-03-15T23:53:30.008Z,8.50
2024-03-15T23:55:59.134Z,8.50
2024-03-15T23:58:26.826Z,8.50
